Meath Environmental Platform

Observations for Trim Patrick St

Time AQI Temp °C Hum % Pres Pa CO μg/m³ H₂S μg/m³ NO μg/m³ NO₂ μg/m³ O₃ μg/m³ SO₂ μg/m³ PM1 μg/m³ PM2.5 μg/m³ PM10 μg/m³
Wednesday 26 August 2026
18:27 2 32.1 40 69,267 0 0 1.8 25.13 125.63 15 5.43 12.5 13.75
18:26 2 32.1 39 69,254 0 0 1.71 17.83 107.43 16.1 6.29 13.41 14.75
18:25 2 32.1 39 69,265 0 0 1.67 20.16 131.49 16.02 8.86 15.76 17.34
18:24 2 32.2 40 69,284 0 0 1.74 23.59 111.42 15.19 6.29 14.1 15.51
18:23 2 32.2 40 69,269 0 0 1.86 20.82 112.15 16.48 5.43 10.95 12.05
18:22 2 32.2 42 69,286 0 0 2.03 23.83 138.58 15.57 7.14 13.14 14.46
18:21 2 32.2 40 69,300 0 0 1.97 18.66 97.51 16.58 6.29 13.3 14.63
18:20 2 32.2 39 69,290 0 0 1.89 26.39 109.21 14.54 7.14 14.15 15.57
18:19 2 32.3 41 69,278 0 5.37 2.01 16.27 84.08 18.35 6.29 11.68 12.84
18:18 2 32.3 40 69,262 0 5.45 1.88 44.26 158.11 14.32 6.29 13.32 14.65
18:17 2 32.3 41 69,238 0 0.18 1.88 20.74 102.08 17.01 6.29 13.25 14.57
18:16 2 32.3 40 69,240 0 1.79 1.92 29.39 117.24 15.41 5.43 12.54 13.79
18:15 2 32.3 42 69,238 0 1.28 2.11 19.47 101.31 17.14 8 13.96 15.35
18:14 2 32.3 40 69,240 0 4.05 2 29.77 120.72 15.15 6.29 12.56 13.81
18:12 2 32.3 40 69,240 0 3.22 2.21 34.6 109.42 15.65 8 14.88 16.37
18:11 2 32.2 40 69,267 0 1.99 2.08 25.3 119.82 16.46 5.43 11.71 12.88
18:10 2 32.3 40 69,246 0 5.69 2.06 41.06 113.96 14.87 6.29 12.52 13.77
18:09 2 32.2 40 69,246 0 0 1.98 28.68 107.43 15.15 7.14 13.34 14.67
18:08 2 32.2 40 69,248 0 7.77 1.99 30.63 114.26 16.37 8 14.1 15.51
18:07 2 32.2 40 69,250 0 4.81 1.96 33.84 144.19 15.32 8 13.32 14.65